Time,TemperatureF,DewpointF,PressureIn,WindDirection,WindDirectionDegrees,WindSpeedMPH,WindSpeedGustMPH,Humidity,HourlyPrecipIn,Conditions,Clouds,dailyrainin,SolarRadiationWatts/m^2,SoftwareType,DateUTC
2013-08-02 00:02:00,73.0,71.0,-100.00,NNE,20,1.0,3.0,92,0.00,,,0.40,2.000000,,2013-08-02 05:02:00,
2013-08-02 00:12:00,73.0,71.0,-100.00,NNE,20,1.0,3.0,92,0.00,,,0.40,2.000000,,2013-08-02 05:12:00,
2013-08-02 00:22:00,73.0,71.0,-100.00,NNE,20,1.0,3.0,92,0.00,,,0.40,2.000000,,2013-08-02 05:22:00,
2013-08-02 00:53:00,73.0,71.0,-100.00,SSE,156,0.0,2.0,93,0.00,,,-99.99,5.000000,,2013-08-02 05:53:00,
2013-08-02 01:02:00,73.0,71.0,-100.00,SSE,156,0.0,2.0,93,0.00,,,-99.99,5.000000,,2013-08-02 06:02:00,
2013-08-02 01:12:00,73.0,71.0,-100.00,SSE,156,0.0,2.0,93,0.00,,,-99.99,5.000000,,2013-08-02 06:12:00,
2013-08-02 01:22:00,73.0,71.0,-100.00,SSE,156,0.0,2.0,93,0.00,,,-99.99,5.000000,,2013-08-02 06:22:00,
2013-08-02 01:52:00,73.0,71.0,-100.00,NNW,333,2.0,4.0,93,0.00,,,0.40,5.000000,,2013-08-02 06:52:00,
2013-08-02 02:02:00,73.0,71.0,-100.00,NNW,333,2.0,4.0,93,0.00,,,0.40,5.000000,,2013-08-02 07:02:00,
2013-08-02 02:12:00,73.0,71.0,-100.00,NNW,333,2.0,4.0,93,0.00,,,0.40,5.000000,,2013-08-02 07:12:00,
2013-08-02 02:22:00,73.0,71.0,-100.00,NNW,333,2.0,4.0,93,0.00,,,0.40,5.000000,,2013-08-02 07:22:00,
2013-08-02 02:53:00,72.0,70.0,-100.00,NNE,27,0.0,2.0,93,0.00,,,0.40,5.000000,,2013-08-02 07:53:00,
2013-08-02 03:02:00,72.0,70.0,-100.00,NNE,27,0.0,2.0,93,0.00,,,0.40,5.000000,,2013-08-02 08:02:00,
2013-08-02 03:12:00,72.0,70.0,-100.00,NNE,27,0.0,2.0,93,0.00,,,0.40,5.000000,,2013-08-02 08:12:00,
2013-08-02 03:22:00,72.0,70.0,-100.00,NNE,27,0.0,2.0,93,0.00,,,0.40,5.000000,,2013-08-02 08:22:00,
2013-08-02 03:54:00,72.0,70.0,-100.00,NE,42,0.0,2.0,94,0.00,,,0.40,5.000000,,2013-08-02 08:54:00,
2013-08-02 04:02:00,72.0,70.0,-100.00,NE,42,0.0,2.0,94,0.00,,,0.40,5.000000,,2013-08-02 09:02:00,
2013-08-02 04:12:00,72.0,70.0,-100.00,NE,42,0.0,2.0,94,0.00,,,0.40,5.000000,,2013-08-02 09:12:00,
2013-08-02 04:23:00,72.0,70.0,-100.00,NE,42,0.0,2.0,94,0.00,,,0.40,5.000000,,2013-08-02 09:23:00,
2013-08-02 04:53:00,71.0,69.0,-100.00,NE,46,0.0,2.0,94,0.00,,,0.40,5.000000,,2013-08-02 09:53:00,
2013-08-02 05:03:00,71.0,69.0,-100.00,NE,46,0.0,2.0,94,0.00,,,0.40,5.000000,,2013-08-02 10:03:00,
2013-08-02 05:12:00,71.0,69.0,-100.00,NE,46,0.0,2.0,94,0.00,,,0.40,5.000000,,2013-08-02 10:12:00,
2013-08-02 05:23:00,71.0,69.0,-100.00,NE,46,0.0,2.0,94,0.00,,,0.40,5.000000,,2013-08-02 10:23:00,
2013-08-02 05:52:00,72.0,70.0,-100.00,NW,314,1.0,3.0,94,0.00,,,0.40,5.000000,,2013-08-02 10:52:00,
2013-08-02 06:02:00,72.0,70.0,-100.00,NW,314,1.0,3.0,94,0.00,,,0.40,5.000000,,2013-08-02 11:02:00,
2013-08-02 06:12:00,72.0,70.0,-100.00,NW,314,1.0,3.0,94,0.00,,,0.40,5.000000,,2013-08-02 11:12:00,
2013-08-02 06:23:00,72.0,70.0,-100.00,NW,314,1.0,3.0,94,0.00,,,0.40,5.000000,,2013-08-02 11:23:00,
2013-08-02 06:52:00,71.0,69.0,-100.00,NE,43,0.0,3.0,94,0.00,,,0.40,6.000000,,2013-08-02 11:52:00,
2013-08-02 07:02:00,71.0,69.0,-100.00,NE,43,0.0,3.0,94,0.00,,,0.40,6.000000,,2013-08-02 12:02:00,
2013-08-02 07:12:00,71.0,69.0,-100.00,NE,43,0.0,3.0,94,0.00,,,0.40,6.000000,,2013-08-02 12:12:00,
2013-08-02 07:22:00,71.0,69.0,-100.00,NE,43,0.0,3.0,94,0.00,,,0.40,6.000000,,2013-08-02 12:22:00,
2013-08-02 07:52:00,76.0,74.0,-100.00,North,353,0.0,3.0,93,0.00,,,0.40,93.000000,,2013-08-02 12:52:00,
2013-08-02 08:03:00,76.0,74.0,-100.00,North,353,0.0,3.0,93,0.00,,,0.40,93.000000,,2013-08-02 13:03:00,
2013-08-02 08:12:00,76.0,74.0,-100.00,North,353,0.0,3.0,93,0.00,,,0.40,93.000000,,2013-08-02 13:12:00,
2013-08-02 08:22:00,76.0,74.0,-100.00,North,353,0.0,3.0,93,0.00,,,0.40,93.000000,,2013-08-02 13:22:00,
2013-08-02 08:52:00,81.0,74.0,-100.00,North,4,3.0,5.0,80,0.00,,,0.40,317.000000,,2013-08-02 13:52:00,
2013-08-02 09:02:00,81.0,74.0,-100.00,North,4,3.0,5.0,80,0.00,,,0.40,317.000000,,2013-08-02 14:02:00,
2013-08-02 09:12:00,81.0,74.0,-100.00,North,4,3.0,5.0,80,0.00,,,0.40,317.000000,,2013-08-02 14:12:00,
2013-08-02 09:22:00,81.0,74.0,-100.00,North,4,3.0,5.0,80,0.00,,,0.40,317.000000,,2013-08-02 14:22:00,
2013-08-02 09:53:00,86.0,74.0,-100.00,NNE,29,4.0,7.0,67,0.00,,,0.40,547.000000,,2013-08-02 14:53:00,
2013-08-02 10:03:00,86.0,74.0,-100.00,NNE,29,4.0,7.0,67,0.00,,,0.40,547.000000,,2013-08-02 15:03:00,
2013-08-02 10:12:00,86.0,74.0,-100.00,NNE,29,4.0,7.0,67,0.00,,,0.40,547.000000,,2013-08-02 15:12:00,
2013-08-02 10:22:00,86.0,74.0,-100.00,NNE,29,4.0,7.0,67,0.00,,,0.40,547.000000,,2013-08-02 15:22:00,
2013-08-02 10:53:00,89.0,74.0,-100.00,East,88,4.0,8.0,61,0.00,,,0.40,748.000000,,2013-08-02 15:53:00,
2013-08-02 11:02:00,89.0,74.0,-100.00,East,88,4.0,8.0,61,0.00,,,0.40,748.000000,,2013-08-02 16:02:00,
2013-08-02 11:12:00,89.0,74.0,-100.00,East,88,4.0,8.0,61,0.00,,,0.40,748.000000,,2013-08-02 16:12:00,
2013-08-02 11:22:00,89.0,74.0,-100.00,East,88,4.0,8.0,61,0.00,,,0.40,748.000000,,2013-08-02 16:22:00,
2013-08-02 11:53:00,91.0,74.0,-100.00,NNE,29,3.0,8.0,58,0.00,,,0.40,808.000000,,2013-08-02 16:53:00,
2013-08-02 12:02:00,91.0,74.0,-100.00,NNE,29,3.0,8.0,58,0.00,,,0.40,808.000000,,2013-08-02 17:02:00,
2013-08-02 12:12:00,91.0,74.0,-100.00,NNE,29,3.0,8.0,58,0.00,,,0.40,808.000000,,2013-08-02 17:12:00,
2013-08-02 12:22:00,91.0,74.0,-100.00,NNE,29,3.0,8.0,58,0.00,,,0.40,808.000000,,2013-08-02 17:22:00,
2013-08-02 12:52:00,92.0,72.0,-100.00,ENE,65,3.0,8.0,52,0.00,,,0.40,716.000000,,2013-08-02 17:52:00,
2013-08-02 13:02:00,92.0,72.0,-100.00,ENE,65,3.0,8.0,52,0.00,,,0.40,716.000000,,2013-08-02 18:02:00,
2013-08-02 13:12:00,92.0,72.0,-100.00,ENE,65,3.0,8.0,52,0.00,,,0.40,716.000000,,2013-08-02 18:12:00,
2013-08-02 13:22:00,92.0,72.0,-100.00,ENE,65,3.0,8.0,52,0.00,,,0.40,716.000000,,2013-08-02 18:22:00,
2013-08-02 13:52:00,94.0,75.0,-100.00,South,183,2.0,7.0,55,0.00,,,0.40,735.000000,,2013-08-02 18:52:00,
2013-08-02 14:02:00,94.0,75.0,-100.00,South,183,2.0,7.0,55,0.00,,,0.40,735.000000,,2013-08-02 19:02:00,
2013-08-02 14:12:00,94.0,75.0,-100.00,South,183,2.0,7.0,55,0.00,,,0.40,735.000000,,2013-08-02 19:12:00,
2013-08-02 14:22:00,94.0,75.0,-100.00,South,183,2.0,7.0,55,0.00,,,0.40,735.000000,,2013-08-02 19:22:00,
2013-08-02 14:52:00,91.0,75.0,-100.00,South,191,4.0,8.0,59,0.00,,,0.40,560.000000,,2013-08-02 19:52:00,
2013-08-02 15:02:00,91.0,75.0,-100.00,South,191,4.0,8.0,59,0.00,,,0.40,560.000000,,2013-08-02 20:02:00,
2013-08-02 15:12:00,91.0,75.0,-100.00,South,191,4.0,8.0,59,0.00,,,0.40,560.000000,,2013-08-02 20:12:00,
2013-08-02 15:23:00,91.0,75.0,-100.00,South,191,4.0,8.0,59,0.00,,,0.40,560.000000,,2013-08-02 20:23:00,
2013-08-02 15:52:00,91.0,75.0,-100.00,SE,140,6.0,11.0,60,0.00,,,0.39,844.000000,,2013-08-02 20:52:00,
2013-08-02 16:03:00,91.0,75.0,-100.00,SE,140,6.0,11.0,60,0.00,,,0.39,844.000000,,2013-08-02 21:03:00,
2013-08-02 16:12:00,91.0,75.0,-100.00,SE,140,6.0,11.0,60,0.00,,,0.39,844.000000,,2013-08-02 21:12:00,
2013-08-02 16:22:00,91.0,75.0,-100.00,SE,140,6.0,11.0,60,0.00,,,0.39,844.000000,,2013-08-02 21:22:00,
2013-08-02 16:53:00,91.0,75.0,-100.00,SSE,164,3.0,12.0,60,0.00,,,0.32,654.000000,,2013-08-02 21:53:00,
2013-08-02 17:02:00,91.0,75.0,-100.00,SSE,164,3.0,12.0,60,0.00,,,0.32,654.000000,,2013-08-02 22:02:00,
2013-08-02 17:12:00,91.0,75.0,-100.00,SSE,164,3.0,12.0,60,0.00,,,0.32,654.000000,,2013-08-02 22:12:00,
2013-08-02 17:22:00,91.0,75.0,-100.00,SSE,164,3.0,12.0,60,0.00,,,0.32,654.000000,,2013-08-02 22:22:00,
2013-08-02 17:52:00,91.0,73.0,-100.00,SSW,207,3.0,8.0,56,0.00,,,0.00,522.000000,,2013-08-02 22:52:00,
2013-08-02 18:02:00,91.0,73.0,-100.00,SSW,207,3.0,8.0,56,0.00,,,0.00,522.000000,,2013-08-02 23:02:00,
2013-08-02 18:12:00,91.0,73.0,-100.00,SSW,207,3.0,8.0,56,0.00,,,0.00,522.000000,,2013-08-02 23:12:00,
2013-08-02 18:22:00,91.0,73.0,-100.00,SSW,207,3.0,8.0,56,0.00,,,0.00,522.000000,,2013-08-02 23:22:00,
2013-08-02 18:53:00,87.0,75.0,-100.00,South,186,3.0,9.0,67,0.00,,,0.00,262.000000,,2013-08-02 23:53:00,
2013-08-02 19:02:00,87.0,75.0,-100.00,South,186,3.0,9.0,67,0.00,,,0.00,262.000000,,2013-08-03 00:02:00,
2013-08-02 19:12:00,87.0,75.0,-100.00,South,186,3.0,9.0,67,0.00,,,0.00,262.000000,,2013-08-03 00:12:00,
2013-08-02 19:22:00,87.0,75.0,-100.00,South,186,3.0,9.0,67,0.00,,,0.00,262.000000,,2013-08-03 00:22:00,
2013-08-02 19:52:00,84.0,76.0,-100.00,SSW,204,1.0,5.0,77,0.00,,,0.00,39.000000,,2013-08-03 00:52:00,
2013-08-02 20:02:00,84.0,76.0,-100.00,SSW,204,1.0,5.0,77,0.00,,,0.00,39.000000,,2013-08-03 01:02:00,
2013-08-02 20:12:00,84.0,76.0,-100.00,SSW,204,1.0,5.0,77,0.00,,,0.00,39.000000,,2013-08-03 01:12:00,
2013-08-02 20:22:00,84.0,76.0,-100.00,SSW,204,1.0,5.0,77,0.00,,,0.00,39.000000,,2013-08-03 01:22:00,
2013-08-02 20:53:00,79.0,75.0,-100.00,SSW,213,0.0,2.0,88,0.00,,,0.00,4.000000,,2013-08-03 01:53:00,
2013-08-02 21:02:00,79.0,75.0,-100.00,SSW,213,0.0,2.0,88,0.00,,,0.00,4.000000,,2013-08-03 02:02:00,
2013-08-02 21:12:00,79.0,75.0,-100.00,SSW,213,0.0,2.0,88,0.00,,,0.00,4.000000,,2013-08-03 02:12:00,
2013-08-02 21:22:00,79.0,75.0,-100.00,SSW,213,0.0,2.0,88,0.00,,,0.00,4.000000,,2013-08-03 02:22:00,
2013-08-02 21:52:00,78.0,75.0,-100.00,ENE,66,0.0,0.0,91,0.00,,,0.00,0.000000,,2013-08-03 02:52:00,
2013-08-02 22:02:00,78.0,75.0,-100.00,ENE,66,0.0,0.0,91,0.00,,,0.00,0.000000,,2013-08-03 03:02:00,
2013-08-02 22:12:00,78.0,75.0,-100.00,ENE,66,0.0,0.0,91,0.00,,,0.00,0.000000,,2013-08-03 03:12:00,
2013-08-02 22:22:00,78.0,75.0,-100.00,ENE,66,0.0,0.0,91,0.00,,,0.00,0.000000,,2013-08-03 03:22:00,
2013-08-02 22:53:00,77.0,74.0,-100.00,East,87,0.0,0.0,92,0.00,,,0.00,0.000000,,2013-08-03 03:53:00,
2013-08-02 23:02:00,77.0,74.0,-100.00,East,87,0.0,0.0,92,0.00,,,0.00,0.000000,,2013-08-03 04:02:00,
2013-08-02 23:12:00,77.0,74.0,-100.00,East,87,0.0,0.0,92,0.00,,,0.00,0.000000,,2013-08-03 04:12:00,
2013-08-02 23:22:00,77.0,74.0,-100.00,East,87,0.0,0.0,92,0.00,,,0.00,0.000000,,2013-08-03 04:22:00,
2013-08-02 23:53:00,75.0,73.0,-100.00,South,191,0.0,2.0,93,0.00,,,0.00,0.000000,,2013-08-03 04:53:00,